UKBB/KBP METAR and TAF weather

Enter ICAO airport designator
Station Type Date Time Source
UKBB METAR 2020/07/11 02:00 UTC NOAA

UKBB 110200Z 16002MPS CAVOK 17/15 Q1019 R18L/CLRD// NOSIG


Station Type Date Time Source
UKBB Decoded METAR 2020/07/11 02:00 UTC NOAA

Boryspil, Ukraine (UKBB) 50-20N 030-58E 122M
Jul 10, 2020 - 10:00 PM EDT / 2020.07.11 0200 UTC
Wind: from the SSE (160 degrees) at 4 MPH (4 KT):0
Visibility: greater than 7 mile(s):0
Temperature: 62 F (17 C)
Dew Point: 59 F (15 C)
Relative Humidity: 88%
Pressure (altimeter): 30.09 in. Hg (1019 hPa)
ob: UKBB 110200Z 16002MPS CAVOK 17/15 Q1019 R18L/CLRD// NOSIG
cycle: 2

Station Type Date Time Source
UKBB TAF 2020/07/10 18:25 UTC NOAA

TAF UKBB 101700Z 1018/1118 17003G08MPS CAVOK TX31/1112Z TN14/1102Z

Example: see airport list